Terminal Aerodrome Forecast
Issued by NWS Northern Indiana

Home | Current Version | Previous Version | Text Only | Print | Product List | Glossary On
Versions: 1 2 3 4 5 6 7 8 9 10 11 12 13 14
000
FTUS43 KIWX 252300
TAFFWA
TAF
KFWA 252332Z 2600/2624 24010KT P6SM BKN015
     FM260100 26005KT P6SM OVC015
     FM260800 32006KT 3SM -RA BR OVC012
     FM261100 33008KT 2SM -RASN OVC008
     FM261400 32010KT P6SM OVC015
     FM261800 30014G20KT P6SM BKN030=

USA.gov is the U.S. government's official web portal to all federal, state and local government web resources and services.